createdAt,value
2023-04-12T00:01:34.457Z,98.43
2023-04-12T00:04:46.599Z,98.32
2023-04-12T00:07:53.428Z,109.31
2023-04-12T00:11:00.245Z,102.43
2023-04-12T00:14:08.831Z,102.68
2023-04-12T00:17:15.893Z,98.94
2023-04-12T00:20:24.877Z,87.69
2023-04-12T00:23:31.574Z,84.46
2023-04-12T00:26:37.597Z,88.76
2023-04-12T00:29:44.298Z,91.29
2023-04-12T00:32:50.438Z,76.60
2023-04-12T00:36:00.611Z,68.66
2023-04-12T00:39:06.796Z,61.38
2023-04-12T00:42:14.282Z,60.52
2023-04-12T00:45:26.374Z,60.06
2023-04-12T00:48:35.122Z,61.37
2023-04-12T00:51:44.586Z,62.45
2023-04-12T00:54:52.154Z,58.56
2023-04-12T00:57:58.368Z,56.26
2023-04-12T01:01:05.005Z,53.58
2023-04-12T01:04:14.245Z,53.50
2023-04-12T01:07:45.308Z,55.19
2023-04-12T01:11:08.834Z,64.20
2023-04-12T01:14:31.730Z,63.96
2023-04-12T01:17:50.732Z,56.18
2023-04-12T01:21:12.513Z,59.42
2023-04-12T01:24:47.140Z,64.53
2023-04-12T01:28:03.798Z,77.46
2023-04-12T01:31:16.533Z,94.43
2023-04-12T01:34:26.274Z,105.04
2023-04-12T01:37:34.236Z,98.77
2023-04-12T01:40:42.867Z,89.45
2023-04-12T01:43:52.751Z,76.37
2023-04-12T01:46:59.735Z,82.33
2023-04-12T01:50:24.633Z,77.06
2023-04-12T01:53:46.466Z,94.41
2023-04-12T01:57:08.541Z,89.37
2023-04-12T02:00:25.021Z,77.83
2023-04-12T02:03:34.361Z,75.12
2023-04-12T02:06:44.717Z,77.81
2023-04-12T02:09:54.098Z,78.31
2023-04-12T02:13:09.485Z,81.76
2023-04-12T02:16:20.885Z,78.19
2023-04-12T02:19:26.880Z,88.73
2023-04-12T02:22:36.432Z,81.24
2023-04-12T02:25:46.836Z,82.52
2023-04-12T02:28:55.483Z,69.60
2023-04-12T02:32:04.638Z,65.79
2023-04-12T02:35:13.069Z,77.07
2023-04-12T02:38:19.459Z,73.51
2023-04-12T02:41:27.945Z,75.41
2023-04-12T02:44:34.011Z,64.98
2023-04-12T02:47:56.202Z,75.56
2023-04-12T02:51:10.841Z,77.46
2023-04-12T02:54:19.272Z,74.55
2023-04-12T02:57:31.719Z,75.74
2023-04-12T03:00:38.637Z,77.41
2023-04-12T03:03:47.488Z,72.95
2023-04-12T03:07:17.495Z,72.09
2023-04-12T03:10:28.050Z,72.85
2023-04-12T03:13:41.559Z,73.74
2023-04-12T03:16:49.375Z,71.71
2023-04-12T03:20:08.385Z,76.10
2023-04-12T03:23:14.833Z,75.71
2023-04-12T03:26:26.862Z,71.14
2023-04-12T03:29:36.527Z,73.70
2023-04-12T03:32:45.951Z,69.43
2023-04-12T03:35:55.142Z,62.37
2023-04-12T03:39:02.326Z,79.77
2023-04-12T03:42:21.595Z,71.54
2023-04-12T03:45:33.550Z,75.01
2023-04-12T03:48:41.729Z,74.23
2023-04-12T03:51:52.735Z,78.42
2023-04-12T03:54:58.652Z,83.72
2023-04-12T03:58:08.173Z,74.32
2023-04-12T04:01:21.980Z,75.64
2023-04-12T04:04:29.636Z,72.01
2023-04-12T04:07:48.174Z,71.32
2023-04-12T04:10:55.800Z,97.03
2023-04-12T04:14:07.532Z,84.27
2023-04-12T04:17:15.035Z,83.26
2023-04-12T04:20:21.052Z,77.35
2023-04-12T04:23:39.286Z,81.47
2023-04-12T04:26:46.053Z,77.30
2023-04-12T04:30:12.667Z,79.17
2023-04-12T04:33:23.751Z,79.37
2023-04-12T04:36:33.196Z,80.65
2023-04-12T04:39:42.106Z,85.58
2023-04-12T04:42:55.083Z,102.80
2023-04-12T04:46:04.121Z,96.75
2023-04-12T04:49:10.976Z,91.37
2023-04-12T04:52:22.031Z,93.02
2023-04-12T04:55:32.298Z,106.02
2023-04-12T04:58:38.543Z,116.33
2023-04-12T05:01:47.011Z,91.55
2023-04-12T05:04:56.647Z,80.02
2023-04-12T05:08:06.700Z,84.23
2023-04-12T05:11:16.950Z,120.60
2023-04-12T05:14:24.382Z,132.33
2023-04-12T05:17:30.389Z,115.17
2023-04-12T05:20:39.390Z,111.78
2023-04-12T05:23:49.118Z,89.70
2023-04-12T05:26:59.248Z,93.56
2023-04-12T05:30:05.305Z,92.21
2023-04-12T05:33:12.135Z,90.59
2023-04-12T05:36:24.140Z,91.68
2023-04-12T05:39:31.377Z,89.46
2023-04-12T05:42:40.158Z,97.03
2023-04-12T05:45:47.479Z,103.43
2023-04-12T05:48:53.819Z,101.45
2023-04-12T05:52:00.800Z,107.80
2023-04-12T05:55:08.018Z,98.83
2023-04-12T05:58:21.404Z,92.58
2023-04-12T06:01:32.642Z,91.67
2023-04-12T06:04:50.037Z,85.97
2023-04-12T06:08:03.479Z,87.41
2023-04-12T06:11:16.529Z,85.52
2023-04-12T06:14:26.263Z,83.61
2023-04-12T06:17:33.563Z,83.26
2023-04-12T06:20:43.280Z,80.74
2023-04-12T06:23:53.389Z,80.51
2023-04-12T06:26:59.735Z,78.96
2023-04-12T06:30:12.462Z,82.92
2023-04-12T06:33:25.050Z,85.37
2023-04-12T06:36:33.475Z,86.21
2023-04-12T06:39:40.027Z,85.02
2023-04-12T06:42:46.934Z,84.36
2023-04-12T06:46:00.348Z,89.62
2023-04-12T06:49:27.521Z,91.68
2023-04-12T06:52:35.945Z,97.08
2023-04-12T06:55:44.352Z,169.64
2023-04-12T06:58:50.306Z,125.84
2023-04-12T07:02:02.465Z,102.07
2023-04-12T07:05:09.757Z,96.08
2023-04-12T07:08:16.620Z,147.03
2023-04-12T07:11:23.337Z,98.95
2023-04-12T07:14:30.279Z,89.39
2023-04-12T07:17:38.918Z,163.80
2023-04-12T07:20:45.814Z,110.15
2023-04-12T07:23:53.473Z,130.71
2023-04-12T07:27:00.265Z,129.99
2023-04-12T07:30:11.455Z,96.91
2023-04-12T07:33:21.135Z,105.77
2023-04-12T07:36:27.792Z,103.01
2023-04-12T07:39:36.494Z,91.67
2023-04-12T07:42:42.569Z,111.96
2023-04-12T07:45:49.683Z,114.73
2023-04-12T07:48:58.582Z,166.05
2023-04-12T07:52:05.711Z,175.54
2023-04-12T07:55:12.337Z,87.67
2023-04-12T07:58:20.376Z,90.88
2023-04-12T08:01:26.946Z,109.09
2023-04-12T08:04:36.373Z,84.39
2023-04-12T08:07:42.384Z,98.08
2023-04-12T08:10:49.175Z,102.46
2023-04-12T08:13:55.181Z,79.88
2023-04-12T08:17:02.057Z,74.18
2023-04-12T08:20:12.378Z,72.03
2023-04-12T08:23:19.526Z,81.52
2023-04-12T08:26:26.875Z,85.33
2023-04-12T08:29:35.167Z,81.83
2023-04-12T08:32:41.993Z,82.60
2023-04-12T08:35:53.070Z,77.18
2023-04-12T08:39:02.832Z,70.28
2023-04-12T08:42:10.345Z,72.49
2023-04-12T08:45:17.570Z,69.90
2023-04-12T08:48:26.063Z,67.26
2023-04-12T08:51:38.142Z,63.63
2023-04-12T08:54:45.031Z,65.30
2023-04-12T08:57:52.402Z,62.74
2023-04-12T09:00:59.605Z,54.74
2023-04-12T09:04:10.343Z,56.88
2023-04-12T09:07:20.213Z,60.94
2023-04-12T09:10:38.328Z,58.41
2023-04-12T09:13:45.470Z,49.84
2023-04-12T09:16:53.983Z,73.90
2023-04-12T09:20:00.858Z,72.27
2023-04-12T09:23:24.454Z,62.32
2023-04-12T09:26:37.576Z,66.20
2023-04-12T09:29:45.874Z,62.28
2023-04-12T09:32:53.849Z,55.10
2023-04-12T09:36:09.691Z,58.00
2023-04-12T09:39:19.298Z,56.60
2023-04-12T09:42:33.434Z,58.97
2023-04-12T09:45:44.886Z,53.64
2023-04-12T09:48:56.741Z,54.42
2023-04-12T09:52:04.274Z,49.40
2023-04-12T09:55:20.832Z,48.75
2023-04-12T09:58:31.740Z,53.95
2023-04-12T10:01:42.071Z,46.53
2023-04-12T10:04:52.286Z,50.45
2023-04-12T10:07:59.838Z,53.70
2023-04-12T10:11:17.494Z,67.36
2023-04-12T10:14:26.364Z,69.00
2023-04-12T10:17:33.490Z,52.90
2023-04-12T10:20:44.474Z,51.00
2023-04-12T10:23:56.718Z,52.92
2023-04-12T10:27:06.867Z,60.19
2023-04-12T10:30:28.806Z,75.35
2023-04-12T10:33:35.379Z,71.64
2023-04-12T10:36:58.878Z,56.23
2023-04-12T10:40:07.539Z,44.99
2023-04-12T10:43:35.013Z,47.08
2023-04-12T10:46:55.539Z,57.99
2023-04-12T10:50:26.838Z,53.36
2023-04-12T10:53:38.253Z,61.32
2023-04-12T10:56:49.569Z,55.36
2023-04-12T11:00:09.659Z,45.93
2023-04-12T11:03:18.569Z,54.16
2023-04-12T11:06:44.034Z,48.71
2023-04-12T11:10:20.306Z,46.72
2023-04-12T11:13:26.816Z,52.51
2023-04-12T11:16:37.105Z,57.13
2023-04-12T11:19:48.008Z,62.18
2023-04-12T11:22:58.634Z,62.06
2023-04-12T11:26:07.555Z,62.41
2023-04-12T11:29:17.142Z,65.94
2023-04-12T11:32:28.233Z,69.74
2023-04-12T11:35:35.257Z,69.72
2023-04-12T11:38:42.369Z,68.35
2023-04-12T11:41:50.893Z,72.39
2023-04-12T11:45:03.142Z,65.38
2023-04-12T11:48:27.563Z,62.96
2023-04-12T11:51:36.141Z,71.34
2023-04-12T11:54:51.593Z,67.31
2023-04-12T11:57:57.698Z,56.50
2023-04-12T12:01:07.068Z,56.30
2023-04-12T12:04:16.423Z,59.35
2023-04-12T12:07:26.005Z,56.03
2023-04-12T12:10:46.455Z,47.02
2023-04-12T12:14:02.391Z,45.01
2023-04-12T12:17:15.566Z,43.53
2023-04-12T12:20:32.306Z,48.13
2023-04-12T12:23:39.245Z,58.91
2023-04-12T12:26:46.139Z,56.99
2023-04-12T12:29:58.193Z,52.92
2023-04-12T12:33:32.043Z,53.11
2023-04-12T12:36:47.589Z,50.72
2023-04-12T12:40:14.082Z,53.90
2023-04-12T12:43:22.947Z,52.47
2023-04-12T12:46:50.945Z,47.78
2023-04-12T12:49:58.761Z,49.43
2023-04-12T12:53:11.108Z,64.74
2023-04-12T12:56:18.883Z,65.19
2023-04-12T12:59:26.196Z,51.64
2023-04-12T13:02:32.393Z,53.42
2023-04-12T13:05:39.316Z,48.82
2023-04-12T13:08:47.998Z,46.55
2023-04-12T13:11:54.742Z,50.15
2023-04-12T13:15:17.226Z,54.29
2023-04-12T13:18:27.666Z,62.74
2023-04-12T13:21:33.661Z,55.84
2023-04-12T13:24:43.623Z,59.86
2023-04-12T13:27:52.494Z,54.76
2023-04-12T13:31:01.714Z,61.03
2023-04-12T13:34:07.725Z,65.42
2023-04-12T13:37:15.565Z,58.55
2023-04-12T13:40:24.340Z,52.47
2023-04-12T13:43:31.169Z,56.48
2023-04-12T13:46:37.291Z,55.23
2023-04-12T13:49:44.914Z,79.29
2023-04-12T13:52:50.805Z,59.05
2023-04-12T13:56:00.120Z,57.66
2023-04-12T13:59:06.708Z,53.16
2023-04-12T14:02:13.573Z,50.48
2023-04-12T14:05:19.507Z,53.77
2023-04-12T14:08:27.712Z,56.41
2023-04-12T14:11:49.601Z,48.47
2023-04-12T14:14:59.367Z,46.08
2023-04-12T14:18:05.841Z,46.62
2023-04-12T14:21:13.497Z,54.22
2023-04-12T14:24:20.241Z,72.34
2023-04-12T14:27:29.728Z,66.38
2023-04-12T14:30:35.875Z,56.46
2023-04-12T14:33:42.716Z,55.56
2023-04-12T14:36:48.609Z,60.92
2023-04-12T14:39:57.226Z,61.24
2023-04-12T14:43:06.142Z,55.62
2023-04-12T14:46:14.290Z,54.74
2023-04-12T14:49:20.272Z,52.93
2023-04-12T14:52:27.880Z,54.27
2023-04-12T14:55:35.301Z,50.44
2023-04-12T14:58:44.705Z,53.68
2023-04-12T15:01:52.518Z,55.04
2023-04-12T15:05:04.499Z,52.55
2023-04-12T15:08:10.902Z,52.36
2023-04-12T15:11:19.487Z,46.24
2023-04-12T15:14:29.150Z,40.75
2023-04-12T15:17:36.898Z,44.66
2023-04-12T15:20:42.770Z,46.38
2023-04-12T15:23:52.748Z,52.08
2023-04-12T15:26:58.623Z,54.05
2023-04-12T15:30:12.490Z,49.14
2023-04-12T15:33:19.322Z,48.74
2023-04-12T15:36:33.838Z,46.20
2023-04-12T15:39:40.548Z,46.17
2023-04-12T15:42:47.572Z,42.72
2023-04-12T15:45:57.382Z,41.95
2023-04-12T15:49:04.760Z,45.73
2023-04-12T15:52:11.045Z,48.66
2023-04-12T15:55:20.681Z,43.11
2023-04-12T15:58:27.802Z,43.48
2023-04-12T16:01:38.353Z,44.70
2023-04-12T16:04:46.890Z,45.73
2023-04-12T16:07:56.468Z,47.22
2023-04-12T16:11:02.549Z,39.89
2023-04-12T16:14:09.523Z,40.29
2023-04-12T16:17:19.378Z,43.72
2023-04-12T16:20:29.390Z,47.36
2023-04-12T16:23:35.467Z,44.04
2023-04-12T16:26:42.573Z,41.04
2023-04-12T16:29:48.718Z,40.00
2023-04-12T16:32:58.568Z,41.22
2023-04-12T16:36:04.656Z,61.84
2023-04-12T16:39:11.771Z,71.06
2023-04-12T16:42:23.493Z,52.63
2023-04-12T16:45:37.632Z,46.29
2023-04-12T16:48:46.179Z,46.57
2023-04-12T16:51:54.127Z,47.05
2023-04-12T16:55:01.364Z,50.09
2023-04-12T16:58:08.244Z,49.24
2023-04-12T17:01:17.282Z,52.21
2023-04-12T17:04:27.209Z,61.79
2023-04-12T17:07:33.378Z,69.25
2023-04-12T17:10:42.433Z,73.57
2023-04-12T17:13:50.734Z,84.54
2023-04-12T17:16:57.644Z,88.64
2023-04-12T17:20:09.150Z,92.27
2023-04-12T17:23:18.428Z,95.49
2023-04-12T17:26:26.852Z,87.61
2023-04-12T17:29:33.945Z,79.02
2023-04-12T17:32:40.691Z,82.16
2023-04-12T17:35:50.587Z,82.72
2023-04-12T17:38:57.257Z,78.17
2023-04-12T17:42:04.246Z,75.15
2023-04-12T17:45:19.582Z,69.18
2023-04-12T17:48:31.661Z,72.25
2023-04-12T17:51:43.012Z,87.93
2023-04-12T17:54:52.082Z,127.54
2023-04-12T17:57:58.459Z,143.00
2023-04-12T18:01:05.380Z,142.34
2023-04-12T18:04:11.632Z,171.07
2023-04-12T18:07:21.688Z,164.05
2023-04-12T18:10:30.836Z,154.20
2023-04-12T18:13:37.687Z,141.27
2023-04-12T18:16:44.305Z,139.10
2023-04-12T18:19:51.143Z,155.37
2023-04-12T18:22:59.803Z,160.95
2023-04-12T18:26:09.307Z,172.78
2023-04-12T18:29:17.823Z,170.37
2023-04-12T18:32:24.645Z,171.66
2023-04-12T18:35:30.842Z,169.84
2023-04-12T18:38:40.605Z,178.38
2023-04-12T18:41:46.747Z,192.10
2023-04-12T18:44:54.316Z,191.04
2023-04-12T18:48:00.723Z,212.91
2023-04-12T18:51:10.703Z,220.07
2023-04-12T18:54:19.340Z,227.89
2023-04-12T18:57:26.261Z,233.31
2023-04-12T19:00:33.150Z,231.12
2023-04-12T19:03:40.190Z,238.22
2023-04-12T19:06:47.518Z,231.14
2023-04-12T19:09:57.719Z,221.58
2023-04-12T19:13:05.058Z,210.07
2023-04-12T19:16:11.983Z,207.09
2023-04-12T19:19:20.075Z,208.36
2023-04-12T19:22:28.900Z,210.25
2023-04-12T19:25:38.180Z,214.19
2023-04-12T19:28:46.236Z,208.42
2023-04-12T19:31:58.514Z,206.80
2023-04-12T19:35:07.710Z,195.35
2023-04-12T19:38:15.736Z,194.76
2023-04-12T19:41:29.045Z,190.98
2023-04-12T19:44:36.922Z,213.27
2023-04-12T19:47:45.799Z,225.71
2023-04-12T19:50:52.190Z,165.72
2023-04-12T19:53:59.698Z,153.67
2023-04-12T19:57:08.583Z,156.78
2023-04-12T20:00:20.507Z,158.71
2023-04-12T20:03:28.802Z,150.09
2023-04-12T20:06:35.859Z,146.98
2023-04-12T20:09:41.827Z,145.22
2023-04-12T20:12:53.476Z,135.65
2023-04-12T20:16:06.413Z,138.78
2023-04-12T20:19:14.046Z,136.10
2023-04-12T20:22:21.478Z,152.43
2023-04-12T20:25:35.792Z,159.60
2023-04-12T20:28:45.234Z,157.54
2023-04-12T20:31:53.865Z,168.95
2023-04-12T20:35:05.901Z,167.10
2023-04-12T20:38:22.498Z,173.39
2023-04-12T20:41:28.484Z,177.06
2023-04-12T20:44:37.916Z,181.50
2023-04-12T20:47:46.526Z,187.56
2023-04-12T20:50:53.366Z,196.50
2023-04-12T20:54:02.389Z,213.56
2023-04-12T20:57:09.810Z,211.49
2023-04-12T21:00:23.996Z,204.68
2023-04-12T21:03:31.091Z,215.55
2023-04-12T21:06:37.863Z,217.97
2023-04-12T21:09:44.734Z,208.09
2023-04-12T21:12:52.030Z,209.00
2023-04-12T21:16:08.010Z,204.56
2023-04-12T21:19:20.982Z,210.15
2023-04-12T21:22:33.954Z,211.91
2023-04-12T21:25:40.169Z,209.57
2023-04-12T21:28:47.435Z,197.88
2023-04-12T21:31:56.500Z,203.42
2023-04-12T21:35:05.852Z,205.98
2023-04-12T21:38:12.390Z,207.83
2023-04-12T21:41:20.498Z,207.53
2023-04-12T21:44:26.926Z,205.85
2023-04-12T21:47:36.489Z,209.04
2023-04-12T21:50:42.400Z,205.06
2023-04-12T21:53:49.387Z,207.73
2023-04-12T21:56:58.335Z,206.42
2023-04-12T22:00:14.015Z,204.12
2023-04-12T22:03:29.865Z,208.42
2023-04-12T22:06:36.803Z,212.27
2023-04-12T22:09:43.103Z,213.46
2023-04-12T22:12:50.848Z,214.83
2023-04-12T22:15:58.162Z,217.68
2023-04-12T22:19:07.779Z,220.88
2023-04-12T22:22:14.626Z,221.88
2023-04-12T22:25:22.978Z,226.67
2023-04-12T22:28:29.465Z,219.50
2023-04-12T22:31:36.363Z,221.49
2023-04-12T22:34:46.861Z,222.89
2023-04-12T22:37:55.112Z,224.84
2023-04-12T22:41:06.543Z,236.24
2023-04-12T22:44:13.298Z,237.94
2023-04-12T22:47:19.083Z,239.19
2023-04-12T22:50:33.327Z,244.57
2023-04-12T22:53:39.578Z,249.98
2023-04-12T22:56:48.283Z,265.54
2023-04-12T22:59:56.276Z,268.20
2023-04-12T23:03:04.553Z,271.88
2023-04-12T23:06:15.287Z,267.11
2023-04-12T23:09:22.043Z,272.06
2023-04-12T23:12:30.973Z,273.24
2023-04-12T23:15:38.174Z,276.64
2023-04-12T23:18:45.354Z,278.58
2023-04-12T23:21:54.858Z,280.87
2023-04-12T23:25:00.704Z,285.14
2023-04-12T23:28:13.368Z,289.16
2023-04-12T23:31:20.154Z,291.90
2023-04-12T23:34:26.858Z,297.74
2023-04-12T23:37:37.107Z,313.14
2023-04-12T23:40:47.892Z,313.50
2023-04-12T23:43:57.274Z,314.92
2023-04-12T23:47:04.498Z,328.09
2023-04-12T23:50:11.664Z,318.62
2023-04-12T23:53:22.393Z,324.29
2023-04-12T23:56:28.308Z,325.60
2023-04-12T23:59:35.138Z,328.57
